Time;durP1;ratioP1;P1;durP2;ratioP2;P2;SDS_P1;SDS_P2;PMS_P1;PMS_P2;Temp;Humidity;BMP_temperature;BMP_pressure;BME280_temperature;BME280_humidity;BME280_pressure;Samples;Min_cycle;Max_cycle;Signal;HPM_P1;HPM_P2
2022/04/09 00:01:06;;;;;;;16.98;2.15;;;;;;;;;;5033016;28;20041;-71
2022/04/09 00:03:33;;;;;;;17.55;2.42;;;;;;;;;;5033576;28;20033;-71
2022/04/09 00:05:59;;;;;;;20.48;1.70;;;;;;;;;;5021556;28;20034;-71
2022/04/09 00:08:25;;;;;;;8.55;2.58;;;;;;;;;;4997369;28;20053;-71
2022/04/09 00:10:51;;;;;;;12.75;1.67;;;;;;;;;;5018791;28;20030;-71
2022/04/09 00:13:19;;;;;;;12.05;2.53;;;;;;;;;;4993206;28;20044;-71
2022/04/09 00:15:45;;;;;;;7.20;1.50;;;;;;;;;;5009414;28;20030;-71
2022/04/09 00:18:15;;;;;;;8.40;1.58;;;;;;;;;;5006453;28;20091;-71
2022/04/09 00:20:41;;;;;;;9.48;1.00;;;;;;;;;;5013189;28;20036;-71
2022/04/09 00:23:10;;;;;;;9.00;1.73;;;;;;;;;;5001140;28;20626;-71
2022/04/09 00:25:36;;;;;;;7.95;1.25;;;;;;;;;;4991888;28;20038;-71
2022/04/09 00:28:02;;;;;;;12.27;1.60;;;;;;;;;;5008613;28;20044;-71
2022/04/09 00:30:28;;;;;;;35.00;2.08;;;;;;;;;;5010710;28;20021;-71
2022/04/09 00:32:54;;;;;;;12.52;1.75;;;;;;;;;;5006421;28;20105;-71
2022/04/09 00:35:20;;;;;;;13.45;2.72;;;;;;;;;;5009917;28;20084;-71
2022/04/09 00:37:47;;;;;;;12.65;1.50;;;;;;;;;;4990788;28;20041;-71
2022/04/09 00:40:15;;;;;;;12.73;2.67;;;;;;;;;;5006602;28;20033;-71
2022/04/09 00:42:42;;;;;;;11.05;1.40;;;;;;;;;;5003089;28;20057;-71
2022/04/09 00:45:08;;;;;;;12.85;1.70;;;;;;;;;;5009312;28;20185;-71
2022/04/09 00:47:35;;;;;;;11.90;1.65;;;;;;;;;;5009581;28;20069;-71
2022/04/09 00:50:01;;;;;;;16.52;2.17;;;;;;;;;;5011743;28;20033;-71
2022/04/09 00:52:28;;;;;;;18.52;2.33;;;;;;;;;;5009938;28;20557;-71
2022/04/09 00:54:55;;;;;;;12.90;1.40;;;;;;;;;;5007963;28;20097;-71
2022/04/09 00:57:21;;;;;;;13.43;2.08;;;;;;;;;;5009277;28;20092;-70
2022/04/09 00:59:50;;;;;;;7.10;1.10;;;;;;;;;;5013725;28;20029;-71
2022/04/09 01:02:17;;;;;;;13.18;1.90;;;;;;;;;;5008659;28;20073;-71
2022/04/09 01:04:43;;;;;;;12.00;1.38;;;;;;;;;;4997794;28;20022;-71
2022/04/09 01:07:10;;;;;;;6.75;1.33;;;;;;;;;;5014476;28;20054;-71
2022/04/09 01:09:36;;;;;;;11.80;1.77;;;;;;;;;;5027616;28;20108;-71
2022/04/09 01:12:03;;;;;;;8.18;1.10;;;;;;;;;;5026000;28;20037;-71
2022/04/09 01:14:29;;;;;;;6.80;1.42;;;;;;;;;;5023973;28;20033;-71
2022/04/09 01:16:56;;;;;;;7.57;0.90;;;;;;;;;;5017564;28;20033;-71
2022/04/09 01:19:23;;;;;;;5.80;0.80;;;;;;;;;;5006670;28;20041;-71
2022/04/09 01:21:49;;;;;;;2.70;0.55;;;;;;;;;;4992534;28;20188;-71
2022/04/09 01:24:15;;;;;;;5.53;0.68;;;;;;;;;;5023792;28;20038;-71
2022/04/09 01:26:43;;;;;;;4.65;0.50;;;;;;;;;;5030170;28;20042;-71
2022/04/09 01:29:09;;;;;;;6.70;0.95;;;;;;;;;;5024344;28;20041;-71
2022/04/09 01:31:35;;;;;;;8.27;0.85;;;;;;;;;;5020809;28;20033;-71
2022/04/09 01:34:01;;;;;;;8.75;0.65;;;;;;;;;;5025864;28;20582;-71
2022/04/09 01:36:27;;;;;;;4.47;0.52;;;;;;;;;;5026597;28;20470;-71
2022/04/09 01:38:53;;;;;;;5.93;0.65;;;;;;;;;;4992233;28;20034;-70
2022/04/09 01:41:19;;;;;;;10.95;0.88;;;;;;;;;;5032371;28;20025;-71
2022/04/09 01:43:45;;;;;;;6.75;0.85;;;;;;;;;;5030692;28;20032;-71
2022/04/09 01:46:11;;;;;;;6.15;1.02;;;;;;;;;;5034739;28;20155;-70
2022/04/09 01:48:37;;;;;;;11.65;1.13;;;;;;;;;;5034244;28;20122;-70
2022/04/09 01:51:03;;;;;;;5.45;0.80;;;;;;;;;;5033773;28;20041;-70
2022/04/09 01:53:29;;;;;;;15.95;1.25;;;;;;;;;;5030370;28;20033;-71
2022/04/09 01:55:55;;;;;;;15.30;1.00;;;;;;;;;;5031592;28;20588;-70
2022/04/09 01:58:22;;;;;;;7.72;0.60;;;;;;;;;;5043163;28;20021;-71
2022/04/09 02:00:48;;;;;;;5.60;1.50;;;;;;;;;;5036375;28;20065;-71
2022/04/09 02:03:14;;;;;;;6.13;0.82;;;;;;;;;;5032992;28;20033;-71
2022/04/09 02:05:40;;;;;;;5.30;1.08;;;;;;;;;;5029552;28;20045;-70
2022/04/09 02:08:07;;;;;;;6.00;0.93;;;;;;;;;;5034147;28;20397;-71
2022/04/09 02:10:34;;;;;;;10.25;1.45;;;;;;;;;;5012061;28;20036;-71
2022/04/09 02:13:02;;;;;;;5.95;1.13;;;;;;;;;;5026927;28;20033;-71
2022/04/09 02:15:28;;;;;;;8.07;0.88;;;;;;;;;;5009048;28;20037;-71
2022/04/09 02:17:54;;;;;;;9.20;1.25;;;;;;;;;;5023805;28;20029;-71
2022/04/09 02:20:20;;;;;;;9.65;2.47;;;;;;;;;;5004954;28;20370;-71
2022/04/09 02:22:46;;;;;;;6.20;1.35;;;;;;;;;;5023342;28;20091;-71
2022/04/09 02:25:15;;;;;;;7.80;1.13;;;;;;;;;;5029066;28;20037;-71
2022/04/09 02:27:41;;;;;;;10.50;1.17;;;;;;;;;;5032083;28;20029;-71
2022/04/09 02:30:08;;;;;;;7.22;1.55;;;;;;;;;;5032247;28;20362;-71
2022/04/09 02:32:45;;;;;;;12.45;1.02;;;;;;;;;;5005790;28;20038;-70
2022/04/09 02:35:11;;;;;;;16.63;2.03;;;;;;;;;;5026710;28;20029;-71
2022/04/09 02:37:38;;;;;;;9.70;1.30;;;;;;;;;;5013895;28;20037;-70
2022/04/09 02:40:05;;;;;;;3.90;1.02;;;;;;;;;;5009977;28;20100;-70
2022/04/09 02:42:31;;;;;;;6.28;1.17;;;;;;;;;;5014430;28;20068;-71
2022/04/09 02:44:57;;;;;;;8.65;1.30;;;;;;;;;;5031822;28;20366;-71
2022/04/09 02:47:23;;;;;;;7.43;1.40;;;;;;;;;;5009116;28;20037;-71
2022/04/09 02:49:49;;;;;;;8.98;1.52;;;;;;;;;;5026884;28;20040;-71
2022/04/09 02:52:15;;;;;;;3.28;0.82;;;;;;;;;;5031550;28;20036;-71
2022/04/09 02:54:41;;;;;;;16.40;1.08;;;;;;;;;;5013341;28;20029;-71
2022/04/09 02:57:07;;;;;;;6.82;0.65;;;;;;;;;;5013720;28;20045;-71
2022/04/09 02:59:33;;;;;;;5.47;1.00;;;;;;;;;;5034601;28;20099;-71
2022/04/09 03:01:59;;;;;;;6.15;1.10;;;;;;;;;;5032052;28;20428;-71
2022/04/09 03:04:26;;;;;;;7.45;1.55;;;;;;;;;;5032153;28;20536;-71
2022/04/09 03:06:52;;;;;;;7.32;1.10;;;;;;;;;;5027926;28;20049;-71
2022/04/09 03:09:18;;;;;;;8.10;0.70;;;;;;;;;;5023829;28;20575;-71
2022/04/09 03:11:44;;;;;;;7.45;1.08;;;;;;;;;;5032025;28;20044;-71
2022/04/09 03:14:10;;;;;;;4.80;0.80;;;;;;;;;;5034743;28;20149;-71
2022/04/09 03:16:36;;;;;;;13.13;0.90;;;;;;;;;;5029089;28;20038;-71
2022/04/09 03:19:02;;;;;;;4.03;1.38;;;;;;;;;;5024413;28;20117;-71
2022/04/09 03:21:28;;;;;;;5.88;0.75;;;;;;;;;;5029871;28;20088;-71
2022/04/09 03:23:54;;;;;;;10.85;1.63;;;;;;;;;;5024397;28;20385;-72
2022/04/09 03:26:20;;;;;;;9.00;1.10;;;;;;;;;;5030943;28;20045;-71
2022/04/09 03:28:46;;;;;;;9.65;1.10;;;;;;;;;;5011895;28;20021;-71
2022/04/09 03:31:13;;;;;;;11.82;2.05;;;;;;;;;;5027936;28;20029;-71
2022/04/09 03:33:39;;;;;;;8.45;1.90;;;;;;;;;;5025198;28;20037;-71
2022/04/09 03:36:06;;;;;;;11.60;1.30;;;;;;;;;;5031055;28;20552;-71
2022/04/09 03:38:32;;;;;;;7.70;1.00;;;;;;;;;;5026999;28;20536;-71
2022/04/09 03:40:58;;;;;;;9.15;0.93;;;;;;;;;;5023671;28;20477;-71
2022/04/09 03:43:26;;;;;;;6.32;1.23;;;;;;;;;;5012423;28;20457;-71
2022/04/09 03:45:52;;;;;;;5.80;1.15;;;;;;;;;;5014408;28;20057;-71
2022/04/09 03:48:18;;;;;;;11.02;1.13;;;;;;;;;;5031796;28;20099;-70
2022/04/09 03:50:44;;;;;;;6.85;1.60;;;;;;;;;;5012413;28;20042;-71
2022/04/09 03:53:10;;;;;;;5.30;0.90;;;;;;;;;;5028722;28;20515;-71
2022/04/09 03:55:36;;;;;;;11.30;2.15;;;;;;;;;;5029926;28;20044;-71
2022/04/09 03:58:02;;;;;;;9.65;1.77;;;;;;;;;;5025528;28;20029;-71
2022/04/09 04:00:28;;;;;;;11.80;1.27;;;;;;;;;;5032596;28;20037;-70
2022/04/09 04:02:57;;;;;;;7.30;0.93;;;;;;;;;;5030529;28;20041;-71
2022/04/09 04:05:23;;;;;;;16.45;1.77;;;;;;;;;;5013884;28;20037;-71
2022/04/09 04:07:49;;;;;;;9.35;1.10;;;;;;;;;;5030608;28;20103;-71
2022/04/09 04:10:16;;;;;;;9.27;0.95;;;;;;;;;;5029395;28;20042;-71
2022/04/09 04:12:43;;;;;;;10.57;1.23;;;;;;;;;;5027783;28;20033;-71
2022/04/09 04:15:10;;;;;;;14.32;1.33;;;;;;;;;;5019988;28;20017;-71
2022/04/09 04:17:40;;;;;;;10.95;1.15;;;;;;;;;;5012780;28;20462;-71
2022/04/09 04:20:06;;;;;;;7.55;1.13;;;;;;;;;;5013402;28;20108;-71
2022/04/09 04:22:32;;;;;;;11.18;1.50;;;;;;;;;;5030552;28;20037;-71
2022/04/09 04:24:58;;;;;;;14.68;3.72;;;;;;;;;;5013342;28;20042;-71
2022/04/09 04:27:24;;;;;;;12.93;4.28;;;;;;;;;;5022451;28;20045;-71
2022/04/09 04:29:50;;;;;;;16.10;6.97;;;;;;;;;;5031269;28;20037;-71
2022/04/09 04:32:16;;;;;;;10.25;2.13;;;;;;;;;;5030856;28;20076;-71
2022/04/09 04:34:43;;;;;;;11.30;1.25;;;;;;;;;;5030060;28;20029;-71
2022/04/09 04:37:09;;;;;;;12.55;1.50;;;;;;;;;;5030825;28;20029;-71
2022/04/09 04:39:35;;;;;;;11.52;1.98;;;;;;;;;;5019827;28;20492;-71
2022/04/09 04:42:01;;;;;;;9.45;2.10;;;;;;;;;;5013826;28;20033;-71
2022/04/09 04:44:27;;;;;;;19.85;1.85;;;;;;;;;;5028530;28;20424;-71
2022/04/09 04:46:53;;;;;;;13.18;1.70;;;;;;;;;;5030371;28;20477;-71
2022/04/09 04:49:19;;;;;;;15.52;2.17;;;;;;;;;;5029259;28;20056;-70
2022/04/09 04:51:45;;;;;;;19.08;3.80;;;;;;;;;;5031753;28;20040;-70
2022/04/09 04:54:11;;;;;;;13.50;1.95;;;;;;;;;;5031018;28;20030;-70
2022/04/09 04:56:37;;;;;;;16.35;3.05;;;;;;;;;;5029164;28;20025;-70
2022/04/09 04:59:03;;;;;;;14.90;2.35;;;;;;;;;;5027398;28;20055;-71
2022/04/09 05:01:29;;;;;;;5.78;1.30;;;;;;;;;;5031006;28;20037;-71
2022/04/09 05:03:56;;;;;;;7.57;1.02;;;;;;;;;;5012850;28;20033;-71
2022/04/09 05:06:22;;;;;;;8.52;1.20;;;;;;;;;;5023887;28;20085;-71
2022/04/09 05:08:48;;;;;;;9.48;1.38;;;;;;;;;;4992886;28;20465;-71
2022/04/09 05:11:14;;;;;;;6.63;0.90;;;;;;;;;;5008297;28;20026;-70
2022/04/09 05:13:40;;;;;;;3.35;0.70;;;;;;;;;;5008096;28;20182;-70
2022/04/09 05:16:06;;;;;;;4.28;0.47;;;;;;;;;;4992632;28;20041;-71
2022/04/09 05:18:33;;;;;;;9.45;1.02;;;;;;;;;;5009916;28;20034;-71
2022/04/09 05:20:59;;;;;;;9.27;2.10;;;;;;;;;;5009669;28;20382;-70
2022/04/09 05:23:25;;;;;;;12.57;1.60;;;;;;;;;;5004334;28;20041;-71
2022/04/09 05:25:51;;;;;;;8.23;0.98;;;;;;;;;;5002105;28;20030;-69
2022/04/09 05:28:17;;;;;;;5.15;1.10;;;;;;;;;;5000241;28;20038;-68
2022/04/09 05:30:44;;;;;;;6.50;0.88;;;;;;;;;;5005663;28;20034;-68
2022/04/09 05:33:10;;;;;;;6.72;1.00;;;;;;;;;;5001353;28;20382;-67
2022/04/09 05:35:36;;;;;;;6.55;1.65;;;;;;;;;;5005555;28;20053;-68
2022/04/09 05:38:03;;;;;;;46.58;20.13;;;;;;;;;;5005717;28;20433;-68
2022/04/09 05:40:29;;;;;;;13.68;5.07;;;;;;;;;;4997124;28;20034;-76
2022/04/09 05:42:56;;;;;;;9.52;1.48;;;;;;;;;;5008552;28;20038;-69
2022/04/09 05:45:22;;;;;;;13.95;1.45;;;;;;;;;;5005206;28;20169;-69
2022/04/09 05:47:48;;;;;;;6.97;1.35;;;;;;;;;;5009968;28;20421;-68
2022/04/09 05:50:15;;;;;;;7.13;1.00;;;;;;;;;;5006262;28;20069;-69
2022/04/09 05:52:41;;;;;;;14.90;1.52;;;;;;;;;;5010457;28;20030;-69
2022/04/09 05:55:08;;;;;;;8.25;1.48;;;;;;;;;;5015634;28;20039;-69
2022/04/09 05:57:34;;;;;;;18.17;2.17;;;;;;;;;;5013217;28;20052;-68
2022/04/09 06:00:01;;;;;;;13.68;2.13;;;;;;;;;;5006808;28;20034;-70
2022/04/09 06:02:27;;;;;;;14.13;1.27;;;;;;;;;;5010862;28;20367;-69
2022/04/09 06:04:53;;;;;;;18.88;2.03;;;;;;;;;;5005271;28;20121;-69
2022/04/09 06:07:19;;;;;;;15.80;2.20;;;;;;;;;;5009885;28;20073;-69
2022/04/09 06:09:46;;;;;;;9.40;2.15;;;;;;;;;;5025980;28;20076;-70
2022/04/09 06:12:13;;;;;;;53.00;22.92;;;;;;;;;;5023256;28;20077;-70
2022/04/09 06:14:39;;;;;;;21.70;6.57;;;;;;;;;;5004379;28;20038;-71
2022/04/09 06:17:06;;;;;;;16.75;6.07;;;;;;;;;;5023023;28;20030;-69
2022/04/09 06:19:32;;;;;;;14.13;1.60;;;;;;;;;;5024080;28;20053;-71
2022/04/09 06:21:58;;;;;;;9.80;1.38;;;;;;;;;;5028955;28;20033;-71
2022/04/09 06:24:24;;;;;;;6.40;1.17;;;;;;;;;;5029086;28;20084;-71
2022/04/09 06:26:50;;;;;;;11.35;1.67;;;;;;;;;;5028194;28;20502;-71
2022/04/09 06:29:16;;;;;;;10.45;1.40;;;;;;;;;;5034709;28;20029;-71
2022/04/09 06:31:45;;;;;;;6.30;1.00;;;;;;;;;;5032591;28;20056;-70
2022/04/09 06:34:11;;;;;;;8.10;0.93;;;;;;;;;;5033023;28;20500;-70
2022/04/09 06:36:37;;;;;;;10.18;1.55;;;;;;;;;;5004064;28;20041;-70
2022/04/09 06:39:03;;;;;;;7.78;1.30;;;;;;;;;;5023474;28;20026;-69
2022/04/09 06:41:29;;;;;;;8.25;1.20;;;;;;;;;;5031047;28;20045;-69
2022/04/09 06:43:55;;;;;;;8.50;2.45;;;;;;;;;;5030797;28;20134;-71
2022/04/09 06:46:21;;;;;;;8.45;1.05;;;;;;;;;;5030869;28;20029;-70
2022/04/09 06:48:47;;;;;;;7.28;1.42;;;;;;;;;;5046540;28;20389;-70
2022/04/09 06:51:13;;;;;;;19.95;2.42;;;;;;;;;;5032622;28;20367;-71
2022/04/09 06:53:39;;;;;;;11.68;1.50;;;;;;;;;;5033413;28;20370;-71
2022/04/09 06:56:06;;;;;;;12.32;1.50;;;;;;;;;;5031845;28;20037;-71
2022/04/09 06:58:33;;;;;;;9.70;1.55;;;;;;;;;;5012688;28;20080;-70
2022/04/09 07:00:59;;;;;;;14.52;2.30;;;;;;;;;;5031013;28;20374;-71
2022/04/09 07:03:25;;;;;;;11.63;1.75;;;;;;;;;;5031620;28;20046;-71
2022/04/09 07:05:51;;;;;;;9.52;1.98;;;;;;;;;;5031760;28;20026;-71
2022/04/09 07:08:17;;;;;;;11.48;2.05;;;;;;;;;;5026723;28;20053;-69
2022/04/09 07:10:43;;;;;;;10.90;2.65;;;;;;;;;;5027788;28;20029;-70
2022/04/09 07:13:09;;;;;;;10.13;1.58;;;;;;;;;;5027214;28;20080;-71
2022/04/09 07:15:35;;;;;;;9.93;1.83;;;;;;;;;;5017221;28;20029;-70
2022/04/09 07:18:02;;;;;;;6.63;1.33;;;;;;;;;;5024948;28;20038;-70
2022/04/09 07:20:29;;;;;;;7.10;1.23;;;;;;;;;;5029723;28;20307;-70
2022/04/09 07:22:55;;;;;;;5.97;1.10;;;;;;;;;;5027383;28;20549;-71
2022/04/09 07:25:21;;;;;;;8.18;1.40;;;;;;;;;;5031719;28;20017;-71
2022/04/09 07:27:48;;;;;;;9.90;1.60;;;;;;;;;;5027200;28;20137;-71
2022/04/09 07:30:16;;;;;;;11.00;1.40;;;;;;;;;;5025253;28;20036;-70
2022/04/09 07:32:42;;;;;;;8.32;2.13;;;;;;;;;;5028925;28;20509;-70
2022/04/09 07:35:08;;;;;;;11.30;1.83;;;;;;;;;;5030805;28;20034;-70
2022/04/09 07:37:40;;;;;;;9.88;1.42;;;;;;;;;;5004696;28;20033;-70
2022/04/09 07:40:07;;;;;;;11.10;1.50;;;;;;;;;;5027404;28;20028;-70
2022/04/09 07:42:33;;;;;;;10.32;2.20;;;;;;;;;;5024746;28;20284;-71
2022/04/09 07:45:00;;;;;;;8.45;1.90;;;;;;;;;;5017597;28;20080;-70
2022/04/09 07:47:26;;;;;;;7.47;1.20;;;;;;;;;;5026971;28;20041;-70
2022/04/09 07:49:52;;;;;;;12.68;3.60;;;;;;;;;;5029394;28;20033;-70
2022/04/09 07:52:18;;;;;;;10.02;1.55;;;;;;;;;;5031905;28;20033;-70
2022/04/09 07:54:44;;;;;;;9.80;1.30;;;;;;;;;;5026887;28;20038;-70
2022/04/09 07:57:10;;;;;;;14.10;1.67;;;;;;;;;;5021219;28;20029;-71
2022/04/09 07:59:36;;;;;;;7.90;1.42;;;;;;;;;;5020991;28;20112;-73
2022/04/09 08:02:02;;;;;;;7.22;1.48;;;;;;;;;;5032475;28;20026;-72
2022/04/09 08:04:28;;;;;;;11.23;1.42;;;;;;;;;;5029802;28;20055;-70
2022/04/09 08:06:54;;;;;;;6.68;1.40;;;;;;;;;;5025391;28;20619;-71
2022/04/09 08:09:20;;;;;;;5.93;1.05;;;;;;;;;;5018015;28;20050;-72
2022/04/09 08:11:47;;;;;;;4.95;1.17;;;;;;;;;;4990747;28;20058;-71
2022/04/09 08:14:13;;;;;;;8.55;1.55;;;;;;;;;;5010066;28;20109;-69
2022/04/09 08:16:39;;;;;;;7.28;2.25;;;;;;;;;;5006795;28;20112;-68
2022/04/09 08:19:07;;;;;;;6.68;1.58;;;;;;;;;;5001062;28;20042;-71
2022/04/09 08:21:33;;;;;;;8.25;1.30;;;;;;;;;;4993349;28;20034;-71
2022/04/09 08:23:59;;;;;;;6.82;0.93;;;;;;;;;;4989360;28;20041;-71
2022/04/09 08:26:25;;;;;;;7.65;1.17;;;;;;;;;;5007867;28;20044;-71
2022/04/09 08:28:51;;;;;;;7.25;1.23;;;;;;;;;;5005593;28;20145;-71
2022/04/09 08:31:17;;;;;;;4.82;1.05;;;;;;;;;;4999502;28;20026;-71
2022/04/09 08:33:44;;;;;;;5.15;1.50;;;;;;;;;;5012336;28;20091;-71
2022/04/09 08:36:10;;;;;;;9.55;1.55;;;;;;;;;;4987549;28;20104;-70
2022/04/09 08:38:36;;;;;;;10.77;1.55;;;;;;;;;;5026143;28;20485;-70
2022/04/09 08:41:03;;;;;;;10.35;1.70;;;;;;;;;;4987466;28;20034;-70
2022/04/09 08:43:30;;;;;;;11.15;1.52;;;;;;;;;;5005399;28;20096;-70
2022/04/09 08:45:57;;;;;;;13.23;1.98;;;;;;;;;;5007498;28;20036;-71
2022/04/09 08:48:23;;;;;;;9.15;1.48;;;;;;;;;;5011441;28;20030;-69
2022/04/09 08:50:49;;;;;;;10.70;1.42;;;;;;;;;;5024401;28;20022;-70
2022/04/09 08:53:15;;;;;;;7.60;1.35;;;;;;;;;;5009167;28;20037;-69
2022/04/09 08:55:43;;;;;;;5.07;1.50;;;;;;;;;;5008762;28;20041;-69
2022/04/09 08:58:09;;;;;;;12.23;1.80;;;;;;;;;;5011701;28;20042;-70
2022/04/09 09:00:35;;;;;;;6.57;1.63;;;;;;;;;;5010856;28;20070;-71
2022/04/09 09:03:03;;;;;;;12.75;1.90;;;;;;;;;;5008833;28;20038;-71
2022/04/09 09:05:32;;;;;;;10.48;1.55;;;;;;;;;;5009037;28;20120;-70
2022/04/09 09:07:59;;;;;;;11.95;1.52;;;;;;;;;;5008741;28;20129;-71
2022/04/09 09:10:25;;;;;;;7.25;1.35;;;;;;;;;;5026755;28;20071;-71
2022/04/09 09:13:05;;;;;;;11.98;1.65;;;;;;;;;;4996888;28;20040;-71
2022/04/09 09:15:48;;;;;;;13.70;1.60;;;;;;;;;;5016641;28;20053;-70
2022/04/09 09:18:21;;;;;;;7.68;1.20;;;;;;;;;;5025350;28;20120;-71
2022/04/09 09:20:48;;;;;;;9.52;1.98;;;;;;;;;;5010413;28;20033;-70
2022/04/09 09:23:24;;;;;;;11.25;1.80;;;;;;;;;;5029205;28;20042;-70
2022/04/09 09:25:51;;;;;;;6.07;1.00;;;;;;;;;;5031416;28;20021;-71
2022/04/09 09:28:24;;;;;;;6.25;1.30;;;;;;;;;;5028819;28;20129;-71
2022/04/09 09:30:50;;;;;;;6.35;1.70;;;;;;;;;;5046117;28;20025;-71
2022/04/09 09:33:16;;;;;;;6.88;0.80;;;;;;;;;;5026562;28;20033;-71
2022/04/09 09:35:49;;;;;;;5.15;1.88;;;;;;;;;;5024149;28;20389;-69
2022/04/09 09:38:28;;;;;;;6.70;1.98;;;;;;;;;;5024480;28;20045;-70
2022/04/09 09:40:58;;;;;;;4.05;0.90;;;;;;;;;;5022356;28;20025;-69
2022/04/09 09:43:25;;;;;;;8.43;1.65;;;;;;;;;;5021582;28;20043;-70
2022/04/09 09:45:52;;;;;;;9.68;1.65;;;;;;;;;;5007480;28;20095;-70
2022/04/09 09:48:21;;;;;;;8.55;1.40;;;;;;;;;;5008026;28;20421;-70
2022/04/09 09:50:47;;;;;;;8.25;1.20;;;;;;;;;;5017352;28;20041;-70
2022/04/09 09:53:14;;;;;;;9.23;1.40;;;;;;;;;;5025043;28;20037;-69
2022/04/09 09:55:43;;;;;;;8.95;1.88;;;;;;;;;;5026443;28;20099;-69
2022/04/09 09:58:15;;;;;;;7.20;1.48;;;;;;;;;;5029211;28;20029;-69
2022/04/09 10:00:41;;;;;;;8.57;1.15;;;;;;;;;;5031514;28;20381;-69
2022/04/09 10:03:09;;;;;;;7.60;1.15;;;;;;;;;;5030979;28;20104;-69
2022/04/09 10:05:37;;;;;;;3.03;0.50;;;;;;;;;;5033292;28;20072;-69
2022/04/09 10:08:03;;;;;;;2.83;0.80;;;;;;;;;;5032399;28;20053;-70
2022/04/09 10:10:29;;;;;;;6.38;1.30;;;;;;;;;;5033171;28;20080;-70
2022/04/09 10:12:57;;;;;;;6.80;0.85;;;;;;;;;;5029284;28;20030;-70
2022/04/09 10:15:26;;;;;;;4.00;0.88;;;;;;;;;;5034511;28;20034;-70
2022/04/09 10:17:56;;;;;;;8.88;1.48;;;;;;;;;;5031520;28;20116;-70
2022/04/09 10:20:25;;;;;;;4.63;0.80;;;;;;;;;;5008904;28;20064;-70
2022/04/09 10:22:55;;;;;;;14.63;1.85;;;;;;;;;;5030846;28;20025;-70
2022/04/09 10:25:24;;;;;;;8.02;1.20;;;;;;;;;;5033672;28;20022;-69
2022/04/09 10:27:54;;;;;;;8.13;1.85;;;;;;;;;;5030957;28;20377;-69
2022/04/09 10:30:21;;;;;;;7.10;1.20;;;;;;;;;;5049077;28;20498;-69
2022/04/09 10:32:58;;;;;;;8.85;1.33;;;;;;;;;;5024972;28;20108;-69
2022/04/09 10:35:27;;;;;;;4.93;1.25;;;;;;;;;;5033981;28;20078;-69
2022/04/09 10:38:15;;;;;;;7.80;1.25;;;;;;;;;;5031224;28;20489;-70
2022/04/09 10:40:44;;;;;;;10.40;1.70;;;;;;;;;;5045307;28;20424;-69
2022/04/09 10:43:10;;;;;;;8.35;1.60;;;;;;;;;;5027804;28;20033;-70
2022/04/09 10:45:55;;;;;;;5.50;1.45;;;;;;;;;;5027117;28;20018;-70
2022/04/09 10:48:33;;;;;;;8.38;1.50;;;;;;;;;;5031923;28;20033;-71
2022/04/09 10:51:01;;;;;;;8.90;1.30;;;;;;;;;;5035132;28;20045;-71
2022/04/09 10:53:28;;;;;;;4.50;0.90;;;;;;;;;;5030904;28;20067;-72
2022/04/09 10:56:27;;;;;;;8.05;1.65;;;;;;;;;;5010656;28;20114;-70
2022/04/09 10:59:05;;;;;;;7.35;1.45;;;;;;;;;;4998081;28;20034;-70
2022/04/09 11:01:47;;;;;;;4.03;0.90;;;;;;;;;;5035280;28;20469;-70
2022/04/09 11:07:03;;;;;;;10.50;1.20;;;;;;;;;;5033490;28;20037;-69
2022/04/09 11:09:48;;;;;;;4.60;0.80;;;;;;;;;;5028887;28;20073;-70
2022/04/09 11:12:14;;;;;;;4.82;0.82;;;;;;;;;;5022802;28;20049;-70
2022/04/09 11:14:49;;;;;;;6.88;0.85;;;;;;;;;;5031021;28;20029;-70
2022/04/09 11:17:15;;;;;;;2.92;0.70;;;;;;;;;;5030847;28;20128;-70
2022/04/09 11:19:42;;;;;;;5.30;0.90;;;;;;;;;;5030312;28;20092;-70
2022/04/09 11:22:09;;;;;;;9.18;1.67;;;;;;;;;;5030084;28;20129;-70
2022/04/09 11:24:38;;;;;;;8.93;1.83;;;;;;;;;;5013168;28;20032;-69
2022/04/09 11:27:05;;;;;;;4.82;0.90;;;;;;;;;;5032886;28;20381;-70
2022/04/09 11:29:33;;;;;;;14.07;5.20;;;;;;;;;;5023794;28;20037;-70
2022/04/09 11:31:59;;;;;;;4.13;1.05;;;;;;;;;;5028397;28;20503;-69
2022/04/09 11:34:25;;;;;;;4.22;0.98;;;;;;;;;;5020346;28;20069;-69
2022/04/09 11:36:52;;;;;;;3.78;0.60;;;;;;;;;;5032410;28;20033;-69
2022/04/09 11:39:19;;;;;;;5.07;1.40;;;;;;;;;;5037125;28;20040;-70
2022/04/09 11:41:48;;;;;;;4.90;1.17;;;;;;;;;;5029689;28;20049;-70
2022/04/09 11:44:29;;;;;;;3.78;0.70;;;;;;;;;;5031619;28;20033;-71
2022/04/09 11:46:55;;;;;;;1.80;0.73;;;;;;;;;;5030357;28;20385;-70
2022/04/09 11:49:21;;;;;;;1.20;0.40;;;;;;;;;;5032290;28;20029;-70
2022/04/09 11:51:54;;;;;;;5.50;0.77;;;;;;;;;;5029130;28;20441;-70
2022/04/09 11:54:20;;;;;;;3.20;0.73;;;;;;;;;;5035404;28;20038;-70
2022/04/09 11:56:46;;;;;;;8.48;4.05;;;;;;;;;;5020214;28;20061;-68
2022/04/09 11:59:16;;;;;;;2.42;0.63;;;;;;;;;;5013940;28;20026;-68
2022/04/09 12:01:48;;;;;;;1.13;0.30;;;;;;;;;;5029111;28;20362;-69
2022/04/09 12:04:14;;;;;;;1.55;0.38;;;;;;;;;;5012111;28;20025;-69
2022/04/09 12:06:41;;;;;;;2.55;0.20;;;;;;;;;;5031926;28;20041;-69
2022/04/09 12:09:07;;;;;;;2.20;0.35;;;;;;;;;;5013307;28;20197;-69
2022/04/09 12:11:33;;;;;;;4.20;1.02;;;;;;;;;;5032014;28;20026;-69
2022/04/09 12:14:15;;;;;;;1.90;0.47;;;;;;;;;;5029115;28;20033;-69
2022/04/09 12:16:41;;;;;;;1.45;0.55;;;;;;;;;;5010918;28;20120;-69
2022/04/09 12:19:07;;;;;;;0.85;0.30;;;;;;;;;;5029263;28;20029;-70
2022/04/09 12:21:35;;;;;;;2.95;0.70;;;;;;;;;;5030915;28;20064;-70
2022/04/09 12:24:01;;;;;;;2.90;0.85;;;;;;;;;;5028415;28;20072;-70
2022/04/09 12:26:27;;;;;;;5.53;1.00;;;;;;;;;;5022257;28;20420;-69
2022/04/09 12:29:07;;;;;;;4.03;0.90;;;;;;;;;;5043681;28;20021;-70
2022/04/09 12:31:33;;;;;;;6.68;0.90;;;;;;;;;;5031703;28;20045;-69
2022/04/09 12:34:00;;;;;;;3.78;0.82;;;;;;;;;;5027080;28;20025;-69
2022/04/09 12:36:26;;;;;;;5.35;0.95;;;;;;;;;;5031221;28;20029;-69
2022/04/09 12:38:52;;;;;;;2.45;0.70;;;;;;;;;;5022510;28;20025;-69
2022/04/09 12:41:18;;;;;;;5.38;0.98;;;;;;;;;;5030774;28;20025;-69
2022/04/09 12:43:46;;;;;;;7.15;1.35;;;;;;;;;;5031710;28;20120;-69
2022/04/09 12:46:13;;;;;;;10.65;1.63;;;;;;;;;;5030935;28;20022;-69
2022/04/09 12:48:41;;;;;;;11.00;1.33;;;;;;;;;;5017830;28;20080;-69
2022/04/09 12:51:07;;;;;;;4.75;0.70;;;;;;;;;;5038755;28;20385;-69
2022/04/09 12:53:33;;;;;;;5.45;0.90;;;;;;;;;;5032599;28;20025;-69
2022/04/09 12:55:59;;;;;;;2.78;0.85;;;;;;;;;;5029974;28;20099;-69
2022/04/09 12:58:25;;;;;;;4.50;0.65;;;;;;;;;;5018972;28;20478;-69
2022/04/09 13:00:51;;;;;;;2.22;0.40;;;;;;;;;;5030884;28;20509;-69
2022/04/09 13:03:17;;;;;;;0.95;0.30;;;;;;;;;;5030022;28;20424;-69
2022/04/09 13:05:43;;;;;;;2.25;0.52;;;;;;;;;;5017669;28;20053;-69
2022/04/09 13:08:11;;;;;;;1.80;0.63;;;;;;;;;;5023842;28;20050;-69
2022/04/09 13:10:37;;;;;;;5.15;0.95;;;;;;;;;;5010687;28;20473;-69
2022/04/09 13:13:04;;;;;;;8.10;2.45;;;;;;;;;;5002702;28;20497;-69
2022/04/09 13:15:31;;;;;;;3.67;1.17;;;;;;;;;;5008076;28;20053;-69
2022/04/09 13:17:57;;;;;;;1.90;0.30;;;;;;;;;;5010205;28;20040;-69
2022/04/09 13:20:24;;;;;;;3.67;0.20;;;;;;;;;;5009841;28;20038;-69
2022/04/09 13:22:50;;;;;;;0.80;0.68;;;;;;;;;;4993435;28;20030;-69
2022/04/09 13:25:18;;;;;;;1.02;0.55;;;;;;;;;;5004985;28;20049;-69
2022/04/09 13:27:45;;;;;;;3.33;0.55;;;;;;;;;;5011358;28;20025;-69
2022/04/09 13:30:12;;;;;;;2.22;0.60;;;;;;;;;;5010392;28;20512;-69
2022/04/09 13:32:38;;;;;;;1.20;0.52;;;;;;;;;;4989523;28;20475;-69
2022/04/09 13:35:05;;;;;;;1.55;0.68;;;;;;;;;;5003516;28;20030;-69
2022/04/09 13:37:31;;;;;;;0.85;0.28;;;;;;;;;;5024271;28;20425;-69
2022/04/09 13:39:57;;;;;;;2.53;0.32;;;;;;;;;;5012060;28;20482;-68
2022/04/09 13:42:23;;;;;;;2.03;0.40;;;;;;;;;;4995604;28;20117;-69
2022/04/09 13:44:49;;;;;;;2.60;0.32;;;;;;;;;;5002583;28;20033;-69
2022/04/09 13:47:15;;;;;;;0.70;0.30;;;;;;;;;;5013664;28;20355;-69
2022/04/09 13:49:42;;;;;;;2.03;0.40;;;;;;;;;;5011416;28;20054;-69
2022/04/09 13:52:08;;;;;;;3.47;0.55;;;;;;;;;;5006634;28;20026;-69
2022/04/09 13:54:34;;;;;;;3.75;1.08;;;;;;;;;;5007757;28;20034;-68
2022/04/09 13:57:00;;;;;;;4.68;2.08;;;;;;;;;;4984427;28;20541;-69
2022/04/09 13:59:26;;;;;;;1.52;0.60;;;;;;;;;;5009004;28;20080;-68
2022/04/09 14:01:53;;;;;;;2.30;1.05;;;;;;;;;;5010665;28;20497;-69
2022/04/09 14:04:19;;;;;;;2.17;0.60;;;;;;;;;;5005973;28;20132;-69
2022/04/09 14:06:45;;;;;;;1.17;0.47;;;;;;;;;;5003215;28;20045;-69
2022/04/09 14:09:11;;;;;;;2.47;0.57;;;;;;;;;;5017214;28;20060;-69
2022/04/09 14:11:37;;;;;;;2.47;0.98;;;;;;;;;;5030251;28;20378;-69
2022/04/09 14:14:03;;;;;;;2.30;0.60;;;;;;;;;;5014456;28;20739;-69
2022/04/09 14:16:30;;;;;;;2.88;0.30;;;;;;;;;;5026837;28;20027;-69
2022/04/09 14:18:56;;;;;;;2.10;0.40;;;;;;;;;;5034348;28;20030;-69
2022/04/09 14:21:26;;;;;;;2.25;0.50;;;;;;;;;;4993776;28;20038;-69
2022/04/09 14:23:52;;;;;;;5.53;1.17;;;;;;;;;;5028943;28;20366;-69
2022/04/09 14:26:18;;;;;;;3.63;0.82;;;;;;;;;;5031550;28;20159;-69
2022/04/09 14:28:44;;;;;;;4.00;0.70;;;;;;;;;;5034326;28;20045;-69
2022/04/09 14:31:10;;;;;;;2.65;0.77;;;;;;;;;;5030196;28;21274;-69
2022/04/09 14:33:38;;;;;;;6.70;0.80;;;;;;;;;;5033163;28;20029;-69
2022/04/09 14:36:04;;;;;;;5.60;0.80;;;;;;;;;;5031383;28;20032;-69
2022/04/09 14:38:30;;;;;;;7.22;0.85;;;;;;;;;;5012854;28;20044;-69
2022/04/09 14:40:57;;;;;;;9.25;1.88;;;;;;;;;;5031553;28;20022;-69